Kansas City, Missouri
Current Conditions -  °F | °C
As of 9:54 PM on Tuesday 25 Nov 2014 (Local Time) from KMKC Reporting Station
Overcast Overcast  
Wind Chill:   Ceiling: 12000
Heat Index:   Visibility: 10mi
Dew Point: -7°   Wind: 9mph
Humidity: 45%   Direction: 180°S
Pressure: 30.04"   Gusts: NA
Location:  39.1°N, 94.58°W
Report Text: KMKC 260354Z 18008KT 10SM OVC120 04/M07 A3004 RMK AO2 SLP178 T00441067
Loading
Personal Weather Stations






























Interactive Weather Map New forecast layout! Learn more

10-Day Weather Forecast

Advertisements
Track Severe Weather on mobile